sensor_id;sensor_type;location;lat;lon;timestamp;temperature;humidity
11491;DHT22;5802;52.832;4.758;2022-08-01T00:01:46;24.50;57.50
11491;DHT22;5802;52.832;4.758;2022-08-01T00:04:13;24.50;57.50
11491;DHT22;5802;52.832;4.758;2022-08-01T00:06:39;24.60;57.50
11491;DHT22;5802;52.832;4.758;2022-08-01T00:09:06;24.60;57.50
11491;DHT22;5802;52.832;4.758;2022-08-01T00:11:33;24.50;57.40
11491;DHT22;5802;52.832;4.758;2022-08-01T00:14:00;24.50;57.40
11491;DHT22;5802;52.832;4.758;2022-08-01T00:16:27;24.50;57.40
11491;DHT22;5802;52.832;4.758;2022-08-01T00:18:55;24.50;57.40
11491;DHT22;5802;52.832;4.758;2022-08-01T00:21:21;24.50;57.40
11491;DHT22;5802;52.832;4.758;2022-08-01T00:23:48;24.50;57.40
11491;DHT22;5802;52.832;4.758;2022-08-01T00:26:15;24.50;57.30
11491;DHT22;5802;52.832;4.758;2022-08-01T00:28:42;24.50;57.90
11491;DHT22;5802;52.832;4.758;2022-08-01T00:31:08;24.50;57.30
11491;DHT22;5802;52.832;4.758;2022-08-01T00:33:35;24.50;57.30
11491;DHT22;5802;52.832;4.758;2022-08-01T00:36:03;24.50;57.30
11491;DHT22;5802;52.832;4.758;2022-08-01T00:38:30;24.50;57.30
11491;DHT22;5802;52.832;4.758;2022-08-01T00:40:57;24.50;57.40
11491;DHT22;5802;52.832;4.758;2022-08-01T00:43:23;24.50;57.30
11491;DHT22;5802;52.832;4.758;2022-08-01T00:45:50;24.50;57.30
11491;DHT22;5802;52.832;4.758;2022-08-01T00:48:17;24.50;57.40
11491;DHT22;5802;52.832;4.758;2022-08-01T00:50:43;24.50;57.30
11491;DHT22;5802;52.832;4.758;2022-08-01T00:53:12;24.50;57.30
11491;DHT22;5802;52.832;4.758;2022-08-01T00:55:38;24.50;57.40
11491;DHT22;5802;52.832;4.758;2022-08-01T00:58:05;24.50;58.00
11491;DHT22;5802;52.832;4.758;2022-08-01T01:00:33;24.50;57.40
11491;DHT22;5802;52.832;4.758;2022-08-01T01:03:02;24.40;57.40
11491;DHT22;5802;52.832;4.758;2022-08-01T01:05:33;24.50;57.30
11491;DHT22;5802;52.832;4.758;2022-08-01T01:08:06;24.40;57.30
11491;DHT22;5802;52.832;4.758;2022-08-01T01:10:40;24.40;57.30
11491;DHT22;5802;52.832;4.758;2022-08-01T01:13:11;24.40;57.40
11491;DHT22;5802;52.832;4.758;2022-08-01T01:15:41;24.40;58.00
11491;DHT22;5802;52.832;4.758;2022-08-01T01:18:13;24.40;57.40
11491;DHT22;5802;52.832;4.758;2022-08-01T01:20:43;24.40;57.30
11491;DHT22;5802;52.832;4.758;2022-08-01T01:23:21;24.40;57.30
11491;DHT22;5802;52.832;4.758;2022-08-01T01:26:04;24.40;57.40
11491;DHT22;5802;52.832;4.758;2022-08-01T01:31:11;24.30;57.30
11491;DHT22;5802;52.832;4.758;2022-08-01T01:33:40;24.40;57.30
11491;DHT22;5802;52.832;4.758;2022-08-01T01:36:09;24.40;57.30
11491;DHT22;5802;52.832;4.758;2022-08-01T01:38:40;24.30;57.30
11491;DHT22;5802;52.832;4.758;2022-08-01T01:41:09;24.40;57.40
11491;DHT22;5802;52.832;4.758;2022-08-01T01:43:37;24.30;57.20
11491;DHT22;5802;52.832;4.758;2022-08-01T01:46:05;24.30;57.30
11491;DHT22;5802;52.832;4.758;2022-08-01T01:48:35;24.30;57.30
11491;DHT22;5802;52.832;4.758;2022-08-01T01:51:03;24.40;57.30
11491;DHT22;5802;52.832;4.758;2022-08-01T01:53:33;24.30;57.30
11491;DHT22;5802;52.832;4.758;2022-08-01T01:56:02;24.30;57.30
11491;DHT22;5802;52.832;4.758;2022-08-01T01:58:33;24.30;57.30
11491;DHT22;5802;52.832;4.758;2022-08-01T02:01:01;24.30;57.20
11491;DHT22;5802;52.832;4.758;2022-08-01T02:03:29;24.30;57.20
11491;DHT22;5802;52.832;4.758;2022-08-01T02:05:59;24.30;57.30
11491;DHT22;5802;52.832;4.758;2022-08-01T02:08:29;24.30;57.30
11491;DHT22;5802;52.832;4.758;2022-08-01T02:10:58;24.30;57.20
11491;DHT22;5802;52.832;4.758;2022-08-01T02:13:43;24.30;57.20
11491;DHT22;5802;52.832;4.758;2022-08-01T02:16:11;24.30;57.20
11491;DHT22;5802;52.832;4.758;2022-08-01T02:18:39;24.30;57.30
11491;DHT22;5802;52.832;4.758;2022-08-01T02:21:10;24.30;57.90
11491;DHT22;5802;52.832;4.758;2022-08-01T02:23:39;24.30;57.30
11491;DHT22;5802;52.832;4.758;2022-08-01T02:26:10;24.30;57.20
11491;DHT22;5802;52.832;4.758;2022-08-01T02:28:45;24.30;57.20
11491;DHT22;5802;52.832;4.758;2022-08-01T02:31:17;24.30;57.20
11491;DHT22;5802;52.832;4.758;2022-08-01T02:33:50;24.30;57.30
11491;DHT22;5802;52.832;4.758;2022-08-01T02:36:20;24.30;57.30
11491;DHT22;5802;52.832;4.758;2022-08-01T02:38:48;24.30;57.30
11491;DHT22;5802;52.832;4.758;2022-08-01T02:41:19;24.30;57.20
11491;DHT22;5802;52.832;4.758;2022-08-01T02:43:49;24.30;57.20
11491;DHT22;5802;52.832;4.758;2022-08-01T02:46:21;24.30;57.20
11491;DHT22;5802;52.832;4.758;2022-08-01T02:48:51;24.30;57.20
11491;DHT22;5802;52.832;4.758;2022-08-01T02:51:21;24.30;57.20
11491;DHT22;5802;52.832;4.758;2022-08-01T02:53:50;24.30;57.10
11491;DHT22;5802;52.832;4.758;2022-08-01T02:56:19;24.30;57.20
11491;DHT22;5802;52.832;4.758;2022-08-01T02:58:51;24.20;57.10
11491;DHT22;5802;52.832;4.758;2022-08-01T03:01:20;24.20;57.10
11491;DHT22;5802;52.832;4.758;2022-08-01T03:03:47;24.30;57.20
11491;DHT22;5802;52.832;4.758;2022-08-01T03:06:15;24.20;57.10
11491;DHT22;5802;52.832;4.758;2022-08-01T03:08:45;24.20;57.10
11491;DHT22;5802;52.832;4.758;2022-08-01T03:11:14;24.30;57.20
11491;DHT22;5802;52.832;4.758;2022-08-01T03:13:42;24.20;57.10
11491;DHT22;5802;52.832;4.758;2022-08-01T03:16:12;24.20;57.10
11491;DHT22;5802;52.832;4.758;2022-08-01T03:18:40;24.20;57.00
11491;DHT22;5802;52.832;4.758;2022-08-01T03:21:08;24.20;57.10
11491;DHT22;5802;52.832;4.758;2022-08-01T03:23:36;24.20;57.00
11491;DHT22;5802;52.832;4.758;2022-08-01T03:26:05;24.20;57.10
11491;DHT22;5802;52.832;4.758;2022-08-01T03:28:32;24.20;57.10
11491;DHT22;5802;52.832;4.758;2022-08-01T03:30:59;24.20;57.10
11491;DHT22;5802;52.832;4.758;2022-08-01T03:33:26;24.20;57.10
11491;DHT22;5802;52.832;4.758;2022-08-01T03:35:54;24.20;57.10
11491;DHT22;5802;52.832;4.758;2022-08-01T03:38:24;24.20;57.10
11491;DHT22;5802;52.832;4.758;2022-08-01T03:40:53;24.20;57.80
11491;DHT22;5802;52.832;4.758;2022-08-01T03:43:37;24.20;57.10
11491;DHT22;5802;52.832;4.758;2022-08-01T03:46:11;24.20;57.10
11491;DHT22;5802;52.832;4.758;2022-08-01T03:48:42;24.20;57.10
11491;DHT22;5802;52.832;4.758;2022-08-01T03:51:09;24.20;57.20
11491;DHT22;5802;52.832;4.758;2022-08-01T03:53:38;24.20;57.10
11491;DHT22;5802;52.832;4.758;2022-08-01T03:56:08;24.20;57.10
11491;DHT22;5802;52.832;4.758;2022-08-01T03:58:38;24.20;57.10
11491;DHT22;5802;52.832;4.758;2022-08-01T04:01:06;24.20;57.10
11491;DHT22;5802;52.832;4.758;2022-08-01T04:03:35;24.20;57.10
11491;DHT22;5802;52.832;4.758;2022-08-01T04:06:03;24.20;57.10
11491;DHT22;5802;52.832;4.758;2022-08-01T04:08:35;24.20;57.10
11491;DHT22;5802;52.832;4.758;2022-08-01T04:11:02;24.20;57.10
11491;DHT22;5802;52.832;4.758;2022-08-01T04:13:29;24.20;57.10
11491;DHT22;5802;52.832;4.758;2022-08-01T04:15:57;24.10;57.00
11491;DHT22;5802;52.832;4.758;2022-08-01T04:18:24;24.10;57.10
11491;DHT22;5802;52.832;4.758;2022-08-01T04:20:51;24.20;57.10
11491;DHT22;5802;52.832;4.758;2022-08-01T04:23:25;24.10;57.00
11491;DHT22;5802;52.832;4.758;2022-08-01T04:25:54;24.10;57.00
11491;DHT22;5802;52.832;4.758;2022-08-01T04:28:22;24.10;57.00
11491;DHT22;5802;52.832;4.758;2022-08-01T04:30:53;24.10;57.00
11491;DHT22;5802;52.832;4.758;2022-08-01T04:33:22;24.10;57.00
11491;DHT22;5802;52.832;4.758;2022-08-01T04:35:52;24.10;57.00
11491;DHT22;5802;52.832;4.758;2022-08-01T04:38:28;24.10;57.00
11491;DHT22;5802;52.832;4.758;2022-08-01T04:40:57;24.10;57.00
11491;DHT22;5802;52.832;4.758;2022-08-01T04:43:24;24.10;57.00
11491;DHT22;5802;52.832;4.758;2022-08-01T04:45:51;24.10;57.00
11491;DHT22;5802;52.832;4.758;2022-08-01T04:48:18;24.10;57.00
11491;DHT22;5802;52.832;4.758;2022-08-01T04:50:47;24.10;57.00
11491;DHT22;5802;52.832;4.758;2022-08-01T04:53:14;24.10;56.90
11491;DHT22;5802;52.832;4.758;2022-08-01T04:55:42;24.10;56.90
11491;DHT22;5802;52.832;4.758;2022-08-01T04:58:10;24.10;56.90
11491;DHT22;5802;52.832;4.758;2022-08-01T05:00:37;24.10;56.90
11491;DHT22;5802;52.832;4.758;2022-08-01T05:03:04;24.10;57.00
11491;DHT22;5802;52.832;4.758;2022-08-01T05:05:31;24.10;56.90
11491;DHT22;5802;52.832;4.758;2022-08-01T05:07:59;24.10;57.00
11491;DHT22;5802;52.832;4.758;2022-08-01T05:10:26;24.10;57.00
11491;DHT22;5802;52.832;4.758;2022-08-01T05:12:53;24.10;57.00
11491;DHT22;5802;52.832;4.758;2022-08-01T05:15:20;24.00;56.90
11491;DHT22;5802;52.832;4.758;2022-08-01T05:17:47;24.10;57.00
11491;DHT22;5802;52.832;4.758;2022-08-01T05:20:14;24.00;56.90
11491;DHT22;5802;52.832;4.758;2022-08-01T05:22:41;24.10;57.00
11491;DHT22;5802;52.832;4.758;2022-08-01T05:25:10;24.10;56.90
11491;DHT22;5802;52.832;4.758;2022-08-01T05:27:37;24.10;57.00
11491;DHT22;5802;52.832;4.758;2022-08-01T05:30:06;24.00;57.00
11491;DHT22;5802;52.832;4.758;2022-08-01T05:32:34;24.10;57.00
11491;DHT22;5802;52.832;4.758;2022-08-01T05:35:00;24.10;57.10
11491;DHT22;5802;52.832;4.758;2022-08-01T05:37:27;24.10;57.00
11491;DHT22;5802;52.832;4.758;2022-08-01T05:39:54;24.00;56.90
11491;DHT22;5802;52.832;4.758;2022-08-01T05:42:22;24.10;57.00
11491;DHT22;5802;52.832;4.758;2022-08-01T05:44:48;24.10;56.90
11491;DHT22;5802;52.832;4.758;2022-08-01T05:47:16;24.10;56.90
11491;DHT22;5802;52.832;4.758;2022-08-01T05:49:43;24.10;56.80
11491;DHT22;5802;52.832;4.758;2022-08-01T05:52:10;24.10;56.80
11491;DHT22;5802;52.832;4.758;2022-08-01T05:54:37;24.10;56.80
11491;DHT22;5802;52.832;4.758;2022-08-01T05:57:03;24.10;56.60
11491;DHT22;5802;52.832;4.758;2022-08-01T05:59:32;24.10;56.60
11491;DHT22;5802;52.832;4.758;2022-08-01T06:01:59;24.10;56.60
11491;DHT22;5802;52.832;4.758;2022-08-01T06:04:26;24.20;56.60
11491;DHT22;5802;52.832;4.758;2022-08-01T06:06:53;24.10;56.50
11491;DHT22;5802;52.832;4.758;2022-08-01T06:09:20;24.20;56.50
11491;DHT22;5802;52.832;4.758;2022-08-01T06:11:46;24.20;56.50
11491;DHT22;5802;52.832;4.758;2022-08-01T06:14:13;24.20;56.40
11491;DHT22;5802;52.832;4.758;2022-08-01T06:16:41;24.20;56.40
11491;DHT22;5802;52.832;4.758;2022-08-01T06:19:08;24.20;56.30
11491;DHT22;5802;52.832;4.758;2022-08-01T06:21:35;24.20;56.30
11491;DHT22;5802;52.832;4.758;2022-08-01T06:24:01;24.20;56.20
11491;DHT22;5802;52.832;4.758;2022-08-01T06:26:28;24.30;56.20
11491;DHT22;5802;52.832;4.758;2022-08-01T06:28:56;24.30;56.10
11491;DHT22;5802;52.832;4.758;2022-08-01T06:31:23;24.30;56.00
11491;DHT22;5802;52.832;4.758;2022-08-01T06:33:51;24.30;55.90
11491;DHT22;5802;52.832;4.758;2022-08-01T06:36:18;24.30;55.80
11491;DHT22;5802;52.832;4.758;2022-08-01T06:38:44;24.40;55.70
11491;DHT22;5802;52.832;4.758;2022-08-01T06:41:12;24.40;55.60
11491;DHT22;5802;52.832;4.758;2022-08-01T06:43:39;24.40;56.10
11491;DHT22;5802;52.832;4.758;2022-08-01T06:46:06;24.40;55.40
11491;DHT22;5802;52.832;4.758;2022-08-01T06:48:32;24.50;55.30
11491;DHT22;5802;52.832;4.758;2022-08-01T06:51:02;24.50;55.20
11491;DHT22;5802;52.832;4.758;2022-08-01T06:53:35;24.60;55.20
11491;DHT22;5802;52.832;4.758;2022-08-01T06:56:02;24.60;55.00
11491;DHT22;5802;52.832;4.758;2022-08-01T06:58:30;24.60;54.90
11491;DHT22;5802;52.832;4.758;2022-08-01T07:00:56;24.60;54.80
11491;DHT22;5802;52.832;4.758;2022-08-01T07:03:23;24.60;54.80
11491;DHT22;5802;52.832;4.758;2022-08-01T07:05:50;24.60;54.70
11491;DHT22;5802;52.832;4.758;2022-08-01T07:08:18;24.70;54.70
11491;DHT22;5802;52.832;4.758;2022-08-01T07:10:44;24.70;54.60
11491;DHT22;5802;52.832;4.758;2022-08-01T07:13:11;24.70;54.50
11491;DHT22;5802;52.832;4.758;2022-08-01T07:15:40;24.80;54.40
11491;DHT22;5802;52.832;4.758;2022-08-01T07:18:06;24.80;54.10
11491;DHT22;5802;52.832;4.758;2022-08-01T07:20:33;24.90;54.10
11491;DHT22;5802;52.832;4.758;2022-08-01T07:23:00;24.90;53.90
11491;DHT22;5802;52.832;4.758;2022-08-01T07:25:28;24.90;53.70
11491;DHT22;5802;52.832;4.758;2022-08-01T07:27:55;25.00;53.60
11491;DHT22;5802;52.832;4.758;2022-08-01T07:30:21;25.10;53.50
11491;DHT22;5802;52.832;4.758;2022-08-01T07:32:48;25.10;53.30
11491;DHT22;5802;52.832;4.758;2022-08-01T07:35:15;25.10;53.10
11491;DHT22;5802;52.832;4.758;2022-08-01T07:37:42;25.20;53.00
11491;DHT22;5802;52.832;4.758;2022-08-01T07:40:09;25.20;52.90
11491;DHT22;5802;52.832;4.758;2022-08-01T07:42:38;25.20;52.80
11491;DHT22;5802;52.832;4.758;2022-08-01T07:45:09;25.30;52.70
11491;DHT22;5802;52.832;4.758;2022-08-01T07:47:36;25.30;52.50
11491;DHT22;5802;52.832;4.758;2022-08-01T07:50:04;25.30;52.50
11491;DHT22;5802;52.832;4.758;2022-08-01T07:52:32;25.40;52.40
11491;DHT22;5802;52.832;4.758;2022-08-01T07:54:58;25.40;52.20
11491;DHT22;5802;52.832;4.758;2022-08-01T07:57:25;25.40;52.10
11491;DHT22;5802;52.832;4.758;2022-08-01T07:59:53;25.50;51.90
11491;DHT22;5802;52.832;4.758;2022-08-01T08:02:20;25.50;51.80
11491;DHT22;5802;52.832;4.758;2022-08-01T08:04:47;25.50;51.70
11491;DHT22;5802;52.832;4.758;2022-08-01T08:07:13;25.60;51.80
11491;DHT22;5802;52.832;4.758;2022-08-01T08:09:40;25.60;51.70
11491;DHT22;5802;52.832;4.758;2022-08-01T08:12:07;25.60;51.70
11491;DHT22;5802;52.832;4.758;2022-08-01T08:14:33;25.60;51.50
11491;DHT22;5802;52.832;4.758;2022-08-01T08:17:02;25.70;51.40
11491;DHT22;5802;52.832;4.758;2022-08-01T08:19:28;25.70;51.30
11491;DHT22;5802;52.832;4.758;2022-08-01T08:21:58;25.70;51.10
11491;DHT22;5802;52.832;4.758;2022-08-01T08:24:24;25.80;51.00
11491;DHT22;5802;52.832;4.758;2022-08-01T08:26:53;25.80;51.00
11491;DHT22;5802;52.832;4.758;2022-08-01T08:29:20;25.80;50.80
11491;DHT22;5802;52.832;4.758;2022-08-01T08:31:48;25.80;50.70
11491;DHT22;5802;52.832;4.758;2022-08-01T08:34:18;25.80;50.80
11491;DHT22;5802;52.832;4.758;2022-08-01T08:36:44;25.80;50.80
11491;DHT22;5802;52.832;4.758;2022-08-01T08:39:11;25.80;50.70
11491;DHT22;5802;52.832;4.758;2022-08-01T08:41:38;25.90;50.90
11491;DHT22;5802;52.832;4.758;2022-08-01T08:44:06;25.90;50.70
11491;DHT22;5802;52.832;4.758;2022-08-01T08:46:34;25.80;50.40
11491;DHT22;5802;52.832;4.758;2022-08-01T08:49:06;25.90;50.40
11491;DHT22;5802;52.832;4.758;2022-08-01T08:51:37;25.90;50.60
11491;DHT22;5802;52.832;4.758;2022-08-01T08:54:05;25.90;50.60
11491;DHT22;5802;52.832;4.758;2022-08-01T08:56:34;25.90;50.60
11491;DHT22;5802;52.832;4.758;2022-08-01T08:59:02;25.90;50.60
11491;DHT22;5802;52.832;4.758;2022-08-01T09:01:30;25.90;50.40
11491;DHT22;5802;52.832;4.758;2022-08-01T09:03:59;25.80;50.30
11491;DHT22;5802;52.832;4.758;2022-08-01T09:06:25;25.80;50.30
11491;DHT22;5802;52.832;4.758;2022-08-01T09:08:55;25.90;50.40
11491;DHT22;5802;52.832;4.758;2022-08-01T09:11:21;25.90;50.40
11491;DHT22;5802;52.832;4.758;2022-08-01T09:14:05;25.90;50.30
11491;DHT22;5802;52.832;4.758;2022-08-01T09:16:33;25.90;50.20
11491;DHT22;5802;52.832;4.758;2022-08-01T09:19:11;26.00;50.90
11491;DHT22;5802;52.832;4.758;2022-08-01T09:21:40;26.00;50.20
11491;DHT22;5802;52.832;4.758;2022-08-01T09:24:15;26.00;50.00
11491;DHT22;5802;52.832;4.758;2022-08-01T09:26:43;26.00;50.10
11491;DHT22;5802;52.832;4.758;2022-08-01T09:29:18;26.00;50.10
11491;DHT22;5802;52.832;4.758;2022-08-01T09:31:45;26.00;50.10
11491;DHT22;5802;52.832;4.758;2022-08-01T09:34:13;26.00;50.00
11491;DHT22;5802;52.832;4.758;2022-08-01T09:36:46;26.00;49.80
11491;DHT22;5802;52.832;4.758;2022-08-01T09:39:19;26.00;49.90
11491;DHT22;5802;52.832;4.758;2022-08-01T09:41:46;25.90;49.80
11491;DHT22;5802;52.832;4.758;2022-08-01T09:44:14;25.90;49.80
11491;DHT22;5802;52.832;4.758;2022-08-01T09:46:49;25.90;49.70
11491;DHT22;5802;52.832;4.758;2022-08-01T09:49:28;25.90;49.50
11491;DHT22;5802;52.832;4.758;2022-08-01T09:51:55;25.90;49.50
11491;DHT22;5802;52.832;4.758;2022-08-01T09:54:31;25.90;49.50
11491;DHT22;5802;52.832;4.758;2022-08-01T09:57:16;25.90;49.70
11491;DHT22;5802;52.832;4.758;2022-08-01T09:59:45;25.90;49.60
11491;DHT22;5802;52.832;4.758;2022-08-01T10:02:14;25.90;49.60
11491;DHT22;5802;52.832;4.758;2022-08-01T10:04:52;25.90;49.40
11491;DHT22;5802;52.832;4.758;2022-08-01T10:07:20;25.90;49.40
11491;DHT22;5802;52.832;4.758;2022-08-01T10:09:49;25.90;49.10
11491;DHT22;5802;52.832;4.758;2022-08-01T10:12:17;25.90;49.00
11491;DHT22;5802;52.832;4.758;2022-08-01T10:14:46;25.90;49.00
11491;DHT22;5802;52.832;4.758;2022-08-01T10:17:20;25.80;48.70
11491;DHT22;5802;52.832;4.758;2022-08-01T10:19:55;25.80;48.90
11491;DHT22;5802;52.832;4.758;2022-08-01T10:22:23;25.80;49.00
11491;DHT22;5802;52.832;4.758;2022-08-01T10:24:55;25.80;49.10
11491;DHT22;5802;52.832;4.758;2022-08-01T10:27:23;25.80;49.20
11491;DHT22;5802;52.832;4.758;2022-08-01T10:29:55;25.70;49.00
11491;DHT22;5802;52.832;4.758;2022-08-01T10:32:23;25.70;49.60
11491;DHT22;5802;52.832;4.758;2022-08-01T10:34:51;25.70;49.00
11491;DHT22;5802;52.832;4.758;2022-08-01T10:37:18;25.70;48.80
11491;DHT22;5802;52.832;4.758;2022-08-01T10:39:45;25.60;48.60
11491;DHT22;5802;52.832;4.758;2022-08-01T10:42:14;25.60;48.50
11491;DHT22;5802;52.832;4.758;2022-08-01T10:44:41;25.60;48.70
11491;DHT22;5802;52.832;4.758;2022-08-01T10:47:13;25.60;48.60
11491;DHT22;5802;52.832;4.758;2022-08-01T10:49:45;25.60;49.30
11491;DHT22;5802;52.832;4.758;2022-08-01T10:52:17;25.50;48.60
11491;DHT22;5802;52.832;4.758;2022-08-01T10:54:44;25.50;48.80
11491;DHT22;5802;52.832;4.758;2022-08-01T10:57:13;25.50;48.80
11491;DHT22;5802;52.832;4.758;2022-08-01T10:59:49;25.50;48.80
11491;DHT22;5802;52.832;4.758;2022-08-01T11:02:27;25.50;48.80
11491;DHT22;5802;52.832;4.758;2022-08-01T11:04:57;25.40;48.70
11491;DHT22;5802;52.832;4.758;2022-08-01T11:07:38;25.40;48.60
11491;DHT22;5802;52.832;4.758;2022-08-01T11:10:16;25.40;48.80
11491;DHT22;5802;52.832;4.758;2022-08-01T11:12:47;25.40;49.00
11491;DHT22;5802;52.832;4.758;2022-08-01T11:15:19;25.40;48.90
11491;DHT22;5802;52.832;4.758;2022-08-01T11:17:53;25.40;48.90
11491;DHT22;5802;52.832;4.758;2022-08-01T11:20:22;25.40;48.70
11491;DHT22;5802;52.832;4.758;2022-08-01T11:23:23;25.40;48.70
11491;DHT22;5802;52.832;4.758;2022-08-01T11:26:14;25.40;48.80
11491;DHT22;5802;52.832;4.758;2022-08-01T11:28:45;25.40;48.90
11491;DHT22;5802;52.832;4.758;2022-08-01T11:31:33;25.40;48.90
11491;DHT22;5802;52.832;4.758;2022-08-01T11:34:01;25.40;48.90
11491;DHT22;5802;52.832;4.758;2022-08-01T11:36:28;25.40;48.90
11491;DHT22;5802;52.832;4.758;2022-08-01T11:39:14;25.40;48.70
11491;DHT22;5802;52.832;4.758;2022-08-01T11:41:42;25.40;48.60
11491;DHT22;5802;52.832;4.758;2022-08-01T11:44:12;25.40;48.70
11491;DHT22;5802;52.832;4.758;2022-08-01T11:46:46;25.40;48.80
11491;DHT22;5802;52.832;4.758;2022-08-01T11:49:31;25.40;48.70
11491;DHT22;5802;52.832;4.758;2022-08-01T11:52:02;25.40;48.80
11491;DHT22;5802;52.832;4.758;2022-08-01T11:54:30;25.40;48.50
11491;DHT22;5802;52.832;4.758;2022-08-01T11:56:59;25.30;48.30
11491;DHT22;5802;52.832;4.758;2022-08-01T11:59:27;25.30;48.40
11491;DHT22;5802;52.832;4.758;2022-08-01T12:01:54;25.30;48.30
11491;DHT22;5802;52.832;4.758;2022-08-01T12:04:21;25.30;48.20
11491;DHT22;5802;52.832;4.758;2022-08-01T12:06:48;25.30;48.20
11491;DHT22;5802;52.832;4.758;2022-08-01T12:09:19;25.30;48.20
11491;DHT22;5802;52.832;4.758;2022-08-01T12:11:46;25.30;48.30
11491;DHT22;5802;52.832;4.758;2022-08-01T12:14:18;25.30;48.30
11491;DHT22;5802;52.832;4.758;2022-08-01T12:16:53;25.30;48.30
11491;DHT22;5802;52.832;4.758;2022-08-01T12:19:21;25.30;48.10
11491;DHT22;5802;52.832;4.758;2022-08-01T12:22:09;25.30;48.30
11491;DHT22;5802;52.832;4.758;2022-08-01T12:24:37;25.20;47.90
11491;DHT22;5802;52.832;4.758;2022-08-01T12:27:04;25.20;47.50
11491;DHT22;5802;52.832;4.758;2022-08-01T12:29:36;25.20;47.40
11491;DHT22;5802;52.832;4.758;2022-08-01T12:32:21;25.20;47.50
11491;DHT22;5802;52.832;4.758;2022-08-01T12:34:48;25.20;47.70
11491;DHT22;5802;52.832;4.758;2022-08-01T12:37:16;25.20;47.70
11491;DHT22;5802;52.832;4.758;2022-08-01T12:39:44;25.10;47.80
11491;DHT22;5802;52.832;4.758;2022-08-01T12:42:11;25.20;47.80
11491;DHT22;5802;52.832;4.758;2022-08-01T12:44:39;25.10;47.70
11491;DHT22;5802;52.832;4.758;2022-08-01T12:47:08;25.10;47.30
11491;DHT22;5802;52.832;4.758;2022-08-01T12:49:36;25.10;47.00
11491;DHT22;5802;52.832;4.758;2022-08-01T12:52:06;25.10;46.80
11491;DHT22;5802;52.832;4.758;2022-08-01T12:55:07;25.10;46.90
11491;DHT22;5802;52.832;4.758;2022-08-01T12:57:35;25.10;47.00
11491;DHT22;5802;52.832;4.758;2022-08-01T13:00:08;25.10;47.30
11491;DHT22;5802;52.832;4.758;2022-08-01T13:02:37;25.10;47.60
11491;DHT22;5802;52.832;4.758;2022-08-01T13:05:05;25.10;47.80
11491;DHT22;5802;52.832;4.758;2022-08-01T13:07:41;25.10;47.80
11491;DHT22;5802;52.832;4.758;2022-08-01T13:10:10;25.10;47.90
11491;DHT22;5802;52.832;4.758;2022-08-01T13:12:38;25.10;47.90
11491;DHT22;5802;52.832;4.758;2022-08-01T13:18:24;25.10;47.70
11491;DHT22;5802;52.832;4.758;2022-08-01T13:21:07;25.10;47.80
11491;DHT22;5802;52.832;4.758;2022-08-01T13:23:34;25.10;47.70
11491;DHT22;5802;52.832;4.758;2022-08-01T13:26:01;25.10;47.70
11491;DHT22;5802;52.832;4.758;2022-08-01T13:28:27;25.20;47.60
11491;DHT22;5802;52.832;4.758;2022-08-01T13:30:58;25.20;47.50
11491;DHT22;5802;52.832;4.758;2022-08-01T13:33:27;25.20;47.20
11491;DHT22;5802;52.832;4.758;2022-08-01T13:35:56;25.20;47.20
11491;DHT22;5802;52.832;4.758;2022-08-01T13:38:22;25.30;47.40
11491;DHT22;5802;52.832;4.758;2022-08-01T13:41:03;25.30;47.40
11491;DHT22;5802;52.832;4.758;2022-08-01T13:43:30;25.30;47.30
11491;DHT22;5802;52.832;4.758;2022-08-01T13:45:57;25.30;47.30
11491;DHT22;5802;52.832;4.758;2022-08-01T13:48:23;25.30;47.20
11491;DHT22;5802;52.832;4.758;2022-08-01T13:50:51;25.30;47.10
11491;DHT22;5802;52.832;4.758;2022-08-01T13:53:18;25.30;47.10
11491;DHT22;5802;52.832;4.758;2022-08-01T13:55:45;25.40;47.20
11491;DHT22;5802;52.832;4.758;2022-08-01T13:58:12;25.40;47.10
11491;DHT22;5802;52.832;4.758;2022-08-01T14:00:38;25.40;46.80
11491;DHT22;5802;52.832;4.758;2022-08-01T14:03:05;25.40;46.60
11491;DHT22;5802;52.832;4.758;2022-08-01T14:05:32;25.50;46.60
11491;DHT22;5802;52.832;4.758;2022-08-01T14:08:00;25.50;46.60
11491;DHT22;5802;52.832;4.758;2022-08-01T14:10:27;25.50;46.40
11491;DHT22;5802;52.832;4.758;2022-08-01T14:12:55;25.60;46.30
11491;DHT22;5802;52.832;4.758;2022-08-01T14:15:23;25.60;46.10
11491;DHT22;5802;52.832;4.758;2022-08-01T14:17:51;25.60;45.80
11491;DHT22;5802;52.832;4.758;2022-08-01T14:20:18;25.60;45.70
11491;DHT22;5802;52.832;4.758;2022-08-01T14:22:45;25.70;45.90
11491;DHT22;5802;52.832;4.758;2022-08-01T14:25:13;25.70;45.80
11491;DHT22;5802;52.832;4.758;2022-08-01T14:27:40;25.80;46.00
11491;DHT22;5802;52.832;4.758;2022-08-01T14:30:08;25.80;45.80
11491;DHT22;5802;52.832;4.758;2022-08-01T14:32:36;25.80;45.40
11491;DHT22;5802;52.832;4.758;2022-08-01T14:35:04;25.80;45.40
11491;DHT22;5802;52.832;4.758;2022-08-01T14:37:31;25.90;45.60
11491;DHT22;5802;52.832;4.758;2022-08-01T14:39:59;25.90;45.60
11491;DHT22;5802;52.832;4.758;2022-08-01T14:42:31;25.90;45.50
11491;DHT22;5802;52.832;4.758;2022-08-01T14:44:58;26.00;45.40
11491;DHT22;5802;52.832;4.758;2022-08-01T14:47:24;26.00;45.10
11491;DHT22;5802;52.832;4.758;2022-08-01T14:49:51;26.00;44.80
11491;DHT22;5802;52.832;4.758;2022-08-01T14:52:18;26.00;44.80
11491;DHT22;5802;52.832;4.758;2022-08-01T14:54:45;26.10;44.70
11491;DHT22;5802;52.832;4.758;2022-08-01T14:57:12;26.10;44.60
11491;DHT22;5802;52.832;4.758;2022-08-01T14:59:44;26.10;45.10
11491;DHT22;5802;52.832;4.758;2022-08-01T15:02:11;26.10;44.50
11491;DHT22;5802;52.832;4.758;2022-08-01T15:04:42;26.10;44.60
11491;DHT22;5802;52.832;4.758;2022-08-01T15:07:09;26.10;44.50
11491;DHT22;5802;52.832;4.758;2022-08-01T15:09:36;26.10;44.40
11491;DHT22;5802;52.832;4.758;2022-08-01T15:12:03;26.10;44.30
11491;DHT22;5802;52.832;4.758;2022-08-01T15:14:30;26.10;44.20
11491;DHT22;5802;52.832;4.758;2022-08-01T15:17:17;26.10;44.30
11491;DHT22;5802;52.832;4.758;2022-08-01T15:19:44;26.10;44.20
11491;DHT22;5802;52.832;4.758;2022-08-01T15:22:11;26.10;44.20
11491;DHT22;5802;52.832;4.758;2022-08-01T15:24:38;26.20;44.30
11491;DHT22;5802;52.832;4.758;2022-08-01T15:27:05;26.20;44.10
11491;DHT22;5802;52.832;4.758;2022-08-01T15:29:32;26.20;44.00
11491;DHT22;5802;52.832;4.758;2022-08-01T15:31:59;26.20;43.90
11491;DHT22;5802;52.832;4.758;2022-08-01T15:34:27;26.20;44.10
11491;DHT22;5802;52.832;4.758;2022-08-01T15:36:54;26.20;44.20
11491;DHT22;5802;52.832;4.758;2022-08-01T15:39:21;26.20;44.10
11491;DHT22;5802;52.832;4.758;2022-08-01T15:41:48;26.20;44.20
11491;DHT22;5802;52.832;4.758;2022-08-01T15:44:15;26.20;44.10
11491;DHT22;5802;52.832;4.758;2022-08-01T15:46:43;26.20;44.10
11491;DHT22;5802;52.832;4.758;2022-08-01T15:49:10;26.20;44.10
11491;DHT22;5802;52.832;4.758;2022-08-01T15:51:38;26.20;44.20
11491;DHT22;5802;52.832;4.758;2022-08-01T15:54:05;26.20;44.10
11491;DHT22;5802;52.832;4.758;2022-08-01T15:56:31;26.20;44.00
11491;DHT22;5802;52.832;4.758;2022-08-01T15:58:59;26.20;44.00
11491;DHT22;5802;52.832;4.758;2022-08-01T16:01:26;26.10;44.00
11491;DHT22;5802;52.832;4.758;2022-08-01T16:03:52;26.10;44.10